createdAt,value
2019-01-03T00:00:11.810Z,16.00
2019-01-03T00:01:11.760Z,16.00
2019-01-03T00:02:12.389Z,16.00
2019-01-03T00:03:11.739Z,16.00
2019-01-03T00:04:11.731Z,16.00
2019-01-03T00:05:11.750Z,16.00
2019-01-03T00:06:11.747Z,16.00
2019-01-03T00:07:11.701Z,16.00
2019-01-03T00:08:11.687Z,16.00
2019-01-03T00:09:11.676Z,16.00
2019-01-03T00:10:11.711Z,16.00
2019-01-03T00:11:11.658Z,16.00
2019-01-03T00:12:11.667Z,16.00
2019-01-03T00:13:11.639Z,16.00
2019-01-03T00:14:11.630Z,16.00
2019-01-03T00:15:11.618Z,16.00
2019-01-03T00:16:11.626Z,16.00
2019-01-03T00:17:11.599Z,20.00
2019-01-03T00:18:11.627Z,16.00
2019-01-03T00:19:11.574Z,16.00
2019-01-03T00:20:11.566Z,16.00
2019-01-03T00:21:11.560Z,16.00
2019-01-03T00:22:11.547Z,16.00
2019-01-03T00:23:11.560Z,16.00
2019-01-03T00:24:11.697Z,16.00
2019-01-03T00:25:11.518Z,16.00
2019-01-03T00:26:11.506Z,16.00
2019-01-03T00:27:11.501Z,16.00
2019-01-03T00:28:21.831Z,16.00
2019-01-03T00:29:11.476Z,16.00
2019-01-03T00:30:11.484Z,16.00
2019-01-03T00:31:11.456Z,16.00
2019-01-03T00:32:11.454Z,16.00
2019-01-03T00:33:11.434Z,16.00
2019-01-03T00:34:11.423Z,20.00
2019-01-03T00:35:11.418Z,16.00
2019-01-03T00:36:11.446Z,16.00
2019-01-03T00:37:11.395Z,16.00
2019-01-03T00:38:11.383Z,16.00
2019-01-03T00:39:11.373Z,16.00
2019-01-03T00:40:11.369Z,16.00
2019-01-03T00:41:11.353Z,16.00
2019-01-03T00:42:11.381Z,16.00
2019-01-03T00:43:11.331Z,16.00
2019-01-03T00:44:11.322Z,16.00
2019-01-03T00:45:11.311Z,16.00
2019-01-03T00:46:11.308Z,16.00
2019-01-03T00:47:18.450Z,16.00
2019-01-03T00:48:11.281Z,16.00
2019-01-03T00:49:11.270Z,16.00
2019-01-03T00:50:11.261Z,16.00
2019-01-03T00:51:11.257Z,16.00
2019-01-03T00:52:11.239Z,16.00
2019-01-03T00:53:11.272Z,16.00
2019-01-03T00:54:11.222Z,16.00
2019-01-03T00:55:11.233Z,16.00
2019-01-03T00:56:11.201Z,16.00
2019-01-03T00:57:11.194Z,16.00
2019-01-03T00:58:11.179Z,16.00
2019-01-03T00:59:11.222Z,16.00
2019-01-03T01:00:11.161Z,16.00
2019-01-03T01:01:11.153Z,16.00
2019-01-03T01:02:11.139Z,16.00
2019-01-03T01:03:11.128Z,16.00
2019-01-03T01:04:11.148Z,16.00
2019-01-03T01:05:11.152Z,16.00
2019-01-03T01:06:11.099Z,16.00
2019-01-03T01:07:11.092Z,16.00
2019-01-03T01:08:11.890Z,16.00
2019-01-03T01:09:11.068Z,16.00
2019-01-03T01:10:11.060Z,16.00
2019-01-03T01:11:11.092Z,16.00
2019-01-03T01:12:11.040Z,16.00
2019-01-03T01:13:11.031Z,16.00
2019-01-03T01:14:11.019Z,16.00
2019-01-03T01:15:11.007Z,16.00
2019-01-03T01:16:10.999Z,16.00
2019-01-03T01:17:11.027Z,16.00
2019-01-03T01:18:21.002Z,16.00
2019-01-03T01:19:10.969Z,16.00
2019-01-03T01:20:10.955Z,16.00
2019-01-03T01:21:10.948Z,16.00
2019-01-03T01:22:10.939Z,16.00
2019-01-03T01:23:10.974Z,16.00
2019-01-03T01:24:10.917Z,16.00
2019-01-03T01:25:10.909Z,16.00
2019-01-03T01:26:10.895Z,16.00
2019-01-03T01:27:10.927Z,16.00
2019-01-03T01:28:10.883Z,16.00
2019-01-03T01:29:10.907Z,16.00
2019-01-03T01:30:10.880Z,16.00
2019-01-03T01:31:10.845Z,16.00
2019-01-03T01:32:10.837Z,16.00
2019-01-03T01:33:10.826Z,16.00
2019-01-03T01:34:10.816Z,16.00
2019-01-03T01:35:10.877Z,16.00
2019-01-03T01:36:10.798Z,16.00
2019-01-03T01:37:10.788Z,16.00
2019-01-03T01:38:10.780Z,16.00
2019-01-03T01:39:10.764Z,16.00
2019-01-03T01:40:10.755Z,16.00
2019-01-03T01:41:10.762Z,16.00
2019-01-03T01:42:10.736Z,16.00
2019-01-03T01:43:10.765Z,16.00
2019-01-03T01:44:10.717Z,16.00
2019-01-03T01:45:10.705Z,16.00
2019-01-03T01:46:10.697Z,16.00
2019-01-03T01:47:10.724Z,16.00
2019-01-03T01:48:10.673Z,16.00
2019-01-03T01:49:20.908Z,16.00
2019-01-03T01:50:10.654Z,16.00
2019-01-03T01:51:10.745Z,16.00
2019-01-03T01:52:10.634Z,16.00
2019-01-03T01:53:10.795Z,16.00
2019-01-03T01:54:10.620Z,16.00
2019-01-03T01:55:10.601Z,16.00
2019-01-03T01:56:10.594Z,16.00
2019-01-03T01:57:10.582Z,16.00
2019-01-03T01:58:10.578Z,16.00
2019-01-03T01:59:10.601Z,16.00
2019-01-03T02:00:10.552Z,16.00
2019-01-03T02:01:10.544Z,16.00
2019-01-03T02:02:10.532Z,16.00
2019-01-03T02:03:10.525Z,16.00
2019-01-03T02:04:10.512Z,16.00
2019-01-03T02:05:10.545Z,16.00
2019-01-03T02:06:10.492Z,16.00
2019-01-03T02:07:10.479Z,16.00
2019-01-03T02:08:10.470Z,16.00
2019-01-03T02:09:10.463Z,16.00
2019-01-03T02:10:10.460Z,16.00
2019-01-03T02:11:10.615Z,16.00
2019-01-03T02:12:10.431Z,16.00
2019-01-03T02:13:10.421Z,16.00
2019-01-03T02:14:10.944Z,16.00
2019-01-03T02:15:10.399Z,16.00
2019-01-03T02:16:10.389Z,16.00
2019-01-03T02:17:10.434Z,16.00
2019-01-03T02:18:10.370Z,16.00
2019-01-03T02:19:10.363Z,16.00
2019-01-03T02:20:23.114Z,16.00
2019-01-03T02:21:10.338Z,16.00
2019-01-03T02:22:10.328Z,16.00
2019-01-03T02:23:10.491Z,16.00
2019-01-03T02:24:10.309Z,16.00
2019-01-03T02:25:10.299Z,16.00
2019-01-03T02:26:10.297Z,16.00
2019-01-03T02:27:10.281Z,16.00
2019-01-03T02:28:10.270Z,16.00
2019-01-03T02:29:10.298Z,16.00
2019-01-03T02:30:10.247Z,16.00
2019-01-03T02:31:10.243Z,16.00
2019-01-03T02:32:10.233Z,16.00
2019-01-03T02:33:10.220Z,16.00
2019-01-03T02:34:10.207Z,16.00
2019-01-03T02:35:10.236Z,16.00
2019-01-03T02:36:10.186Z,16.00
2019-01-03T02:37:10.178Z,16.00
2019-01-03T02:38:10.168Z,16.00
2019-01-03T02:39:10.161Z,16.00
2019-01-03T02:40:10.189Z,16.00
2019-01-03T02:41:10.153Z,16.00
2019-01-03T02:42:10.129Z,16.00
2019-01-03T02:43:10.116Z,16.00
2019-01-03T02:44:10.134Z,16.00
2019-01-03T02:45:10.101Z,16.00
2019-01-03T02:46:10.089Z,16.00
2019-01-03T02:47:10.095Z,16.00
2019-01-03T02:48:10.066Z,16.00
2019-01-03T02:49:10.086Z,16.00
2019-01-03T02:50:10.049Z,20.00
2019-01-03T02:51:20.261Z,16.00
2019-01-03T02:52:10.026Z,16.00
2019-01-03T02:53:10.055Z,16.00
2019-01-03T02:54:10.012Z,16.00
2019-01-03T02:55:09.998Z,16.00
2019-01-03T02:56:09.990Z,16.00
2019-01-03T02:57:10.490Z,16.00
2019-01-03T02:58:09.967Z,16.00
2019-01-03T02:59:09.973Z,16.00
2019-01-03T03:00:09.948Z,16.00
2019-01-03T03:01:09.935Z,16.00
2019-01-03T03:02:09.931Z,16.00
2019-01-03T03:03:09.916Z,16.00
2019-01-03T03:04:09.916Z,16.00
2019-01-03T03:05:09.935Z,16.00
2019-01-03T03:06:09.885Z,16.00
2019-01-03T03:07:09.874Z,16.00
2019-01-03T03:08:09.864Z,16.00
2019-01-03T03:09:09.860Z,16.00
2019-01-03T03:10:09.845Z,16.00
2019-01-03T03:11:09.876Z,16.00
2019-01-03T03:12:09.828Z,20.00
2019-01-03T03:13:09.815Z,20.00
2019-01-03T03:14:09.804Z,20.00
2019-01-03T03:15:09.798Z,36.00
2019-01-03T03:16:09.784Z,36.00
2019-01-03T03:17:09.944Z,32.00
2019-01-03T03:18:09.763Z,20.00
2019-01-03T03:19:09.753Z,28.00
2019-01-03T03:20:10.481Z,20.00
2019-01-03T03:21:09.740Z,16.00
2019-01-03T03:22:22.603Z,16.00
2019-01-03T03:23:09.716Z,24.00
2019-01-03T03:24:09.704Z,28.00
2019-01-03T03:25:09.711Z,4.00
2019-01-03T03:26:09.682Z,4.00
2019-01-03T03:27:09.675Z,52.00
2019-01-03T03:28:09.712Z,28.00
2019-01-03T03:29:09.653Z,16.00
2019-01-03T03:30:09.644Z,16.00
2019-01-03T03:31:09.640Z,44.00
2019-01-03T03:32:09.624Z,32.00
2019-01-03T03:33:09.611Z,32.00
2019-01-03T03:34:09.649Z,32.00
2019-01-03T03:35:09.591Z,24.00
2019-01-03T03:36:09.589Z,36.00
2019-01-03T03:37:09.582Z,40.00
2019-01-03T03:38:09.572Z,44.00
2019-01-03T03:39:09.553Z,16.00
2019-01-03T03:40:09.613Z,12.00
2019-01-03T03:41:09.529Z,16.00
2019-01-03T03:42:09.520Z,16.00
2019-01-03T03:43:09.517Z,16.00
2019-01-03T03:44:09.508Z,16.00
2019-01-03T03:45:09.491Z,16.00
2019-01-03T03:46:09.521Z,16.00
2019-01-03T03:47:09.472Z,16.00
2019-01-03T03:48:09.460Z,16.00
2019-01-03T03:49:09.452Z,16.00
2019-01-03T03:50:09.448Z,16.00
2019-01-03T03:51:09.442Z,16.00
2019-01-03T03:52:09.465Z,16.00
2019-01-03T03:53:20.828Z,16.00
2019-01-03T03:54:09.402Z,16.00
2019-01-03T03:55:09.391Z,16.00
2019-01-03T03:56:09.404Z,16.00
2019-01-03T03:57:09.373Z,16.00
2019-01-03T03:58:09.440Z,16.00
2019-01-03T03:59:09.349Z,16.00
2019-01-03T04:00:09.348Z,16.00
2019-01-03T04:01:09.330Z,16.00
2019-01-03T04:02:09.321Z,16.00
2019-01-03T04:03:10.041Z,16.00
2019-01-03T04:04:09.335Z,16.00
2019-01-03T04:05:09.289Z,16.00
2019-01-03T04:06:09.282Z,16.00
2019-01-03T04:07:09.278Z,16.00
2019-01-03T04:08:09.260Z,16.00
2019-01-03T04:09:09.249Z,16.00
2019-01-03T04:10:09.255Z,16.00
2019-01-03T04:11:09.230Z,16.00
2019-01-03T04:12:09.218Z,16.00
2019-01-03T04:13:09.224Z,16.00
2019-01-03T04:14:09.196Z,16.00
2019-01-03T04:15:09.191Z,16.00
2019-01-03T04:16:09.352Z,16.00
2019-01-03T04:17:09.168Z,16.00
2019-01-03T04:18:09.157Z,16.00
2019-01-03T04:19:09.151Z,16.00
2019-01-03T04:20:09.149Z,16.00
2019-01-03T04:21:09.129Z,16.00
2019-01-03T04:22:09.160Z,16.00
2019-01-03T04:23:09.109Z,16.00
2019-01-03T04:24:19.736Z,16.00
2019-01-03T04:25:09.086Z,16.00
2019-01-03T04:26:09.077Z,16.00
2019-01-03T04:27:09.071Z,16.00
2019-01-03T04:28:09.831Z,16.00
2019-01-03T04:29:09.054Z,16.00
2019-01-03T04:30:09.054Z,16.00
2019-01-03T04:31:09.034Z,16.00
2019-01-03T04:32:09.020Z,16.00
2019-01-03T04:33:09.019Z,16.00
2019-01-03T04:34:09.176Z,16.00
2019-01-03T04:35:08.986Z,16.00
2019-01-03T04:36:08.979Z,16.00
2019-01-03T04:37:08.967Z,16.00
2019-01-03T04:38:08.961Z,16.00
2019-01-03T04:39:08.953Z,16.00
2019-01-03T04:40:08.975Z,16.00
2019-01-03T04:41:08.963Z,16.00
2019-01-03T04:42:08.915Z,16.00
2019-01-03T04:43:08.909Z,16.00
2019-01-03T04:44:08.902Z,16.00
2019-01-03T04:45:08.894Z,16.00
2019-01-03T04:46:09.109Z,16.00
2019-01-03T04:47:08.869Z,16.00
2019-01-03T04:48:08.859Z,16.00
2019-01-03T04:49:08.850Z,16.00
2019-01-03T04:50:08.864Z,16.00
2019-01-03T04:51:08.830Z,16.00
2019-01-03T04:52:08.882Z,16.00
2019-01-03T04:53:08.807Z,16.00
2019-01-03T04:54:08.798Z,16.00
2019-01-03T04:55:18.753Z,16.00
2019-01-03T04:56:08.780Z,16.00
2019-01-03T04:57:08.770Z,16.00
2019-01-03T04:58:08.801Z,16.00
2019-01-03T04:59:08.748Z,16.00
2019-01-03T05:00:08.735Z,16.00
2019-01-03T05:01:08.727Z,16.00
2019-01-03T05:02:08.715Z,16.00
2019-01-03T05:03:08.722Z,16.00
2019-01-03T05:04:08.739Z,16.00
2019-01-03T05:05:08.689Z,16.00
2019-01-03T05:06:08.702Z,16.00
2019-01-03T05:07:08.666Z,16.00
2019-01-03T05:08:08.656Z,16.00
2019-01-03T05:09:09.581Z,16.00
2019-01-03T05:10:08.790Z,16.00
2019-01-03T05:11:08.633Z,16.00
2019-01-03T05:12:08.649Z,16.00
2019-01-03T05:13:08.605Z,16.00
2019-01-03T05:14:08.598Z,16.00
2019-01-03T05:15:08.586Z,16.00
2019-01-03T05:16:08.602Z,16.00
2019-01-03T05:17:08.567Z,16.00
2019-01-03T05:18:08.588Z,16.00
2019-01-03T05:19:08.595Z,16.00
2019-01-03T05:20:08.541Z,16.00
2019-01-03T05:21:08.529Z,16.00
2019-01-03T05:22:08.633Z,16.00
2019-01-03T05:23:08.516Z,16.00
2019-01-03T05:24:08.526Z,16.00
2019-01-03T05:25:08.490Z,16.00
2019-01-03T05:26:18.830Z,16.00
2019-01-03T05:27:15.743Z,16.00
2019-01-03T05:28:08.455Z,16.00
2019-01-03T05:29:08.447Z,16.00
2019-01-03T05:30:08.443Z,16.00
2019-01-03T05:31:08.430Z,16.00
2019-01-03T05:32:08.416Z,16.00
2019-01-03T05:33:08.448Z,16.00
2019-01-03T05:34:08.398Z,16.00
2019-01-03T05:35:08.412Z,16.00
2019-01-03T05:36:08.378Z,16.00
2019-01-03T05:37:08.370Z,16.00
2019-01-03T05:38:08.380Z,16.00
2019-01-03T05:39:08.390Z,16.00
2019-01-03T05:40:08.343Z,16.00
2019-01-03T05:41:08.327Z,16.00
2019-01-03T05:42:08.325Z,16.00
2019-01-03T05:43:08.339Z,16.00
2019-01-03T05:44:08.301Z,16.00
2019-01-03T05:45:08.337Z,16.00
2019-01-03T05:46:08.279Z,16.00
2019-01-03T05:47:08.271Z,16.00
2019-01-03T05:48:08.261Z,16.00
2019-01-03T05:49:08.286Z,16.00
2019-01-03T05:50:08.240Z,16.00
2019-01-03T05:51:08.272Z,16.00
2019-01-03T05:52:08.221Z,16.00
2019-01-03T05:53:08.213Z,16.00
2019-01-03T05:54:08.200Z,16.00
2019-01-03T05:55:08.190Z,16.00
2019-01-03T05:56:08.204Z,16.00
2019-01-03T05:57:08.242Z,16.00
2019-01-03T05:58:18.719Z,16.00
2019-01-03T05:59:15.146Z,16.00
2019-01-03T06:00:08.142Z,16.00
2019-01-03T06:01:08.133Z,16.00
2019-01-03T06:02:08.121Z,16.00
2019-01-03T06:03:08.149Z,16.00
2019-01-03T06:04:08.132Z,16.00
2019-01-03T06:05:08.090Z,16.00
2019-01-03T06:06:08.084Z,16.00
2019-01-03T06:07:08.094Z,16.00
2019-01-03T06:08:08.063Z,16.00
2019-01-03T06:09:08.098Z,20.00
2019-01-03T06:10:08.043Z,20.00
2019-01-03T06:11:08.031Z,20.00
2019-01-03T06:12:08.022Z,20.00
2019-01-03T06:13:08.042Z,20.00
2019-01-03T06:14:08.006Z,20.00
2019-01-03T06:15:08.211Z,16.00
2019-01-03T06:16:07.982Z,16.00
2019-01-03T06:17:07.974Z,20.00
2019-01-03T06:18:07.972Z,20.00
2019-01-03T06:19:07.969Z,20.00
2019-01-03T06:20:07.947Z,20.00
2019-01-03T06:21:07.974Z,24.00
2019-01-03T06:22:07.925Z,20.00
2019-01-03T06:23:07.916Z,20.00
2019-01-03T06:24:07.907Z,20.00
2019-01-03T06:25:07.900Z,20.00
2019-01-03T06:26:07.886Z,20.00
2019-01-03T06:27:07.950Z,24.00
2019-01-03T06:28:08.154Z,20.00
2019-01-03T06:29:07.858Z,24.00
2019-01-03T06:30:18.404Z,24.00
2019-01-03T06:31:15.134Z,24.00
2019-01-03T06:32:15.245Z,24.00
2019-01-03T06:33:16.617Z,28.00
2019-01-03T06:34:14.798Z,28.00
2019-01-03T06:35:07.797Z,32.00
2019-01-03T06:36:07.785Z,36.00
2019-01-03T06:37:07.777Z,36.00
2019-01-03T06:38:07.788Z,36.00
2019-01-03T06:39:07.760Z,40.00
2019-01-03T06:40:07.774Z,44.00
2019-01-03T06:41:07.739Z,44.00
2019-01-03T06:42:07.735Z,48.00
2019-01-03T06:43:07.721Z,52.00
2019-01-03T06:44:07.747Z,60.00
2019-01-03T06:45:07.718Z,60.00
2019-01-03T06:46:07.689Z,68.00
2019-01-03T06:47:07.681Z,72.00
2019-01-03T06:48:07.685Z,80.00
2019-01-03T06:49:07.659Z,84.00
2019-01-03T06:50:07.755Z,88.00
2019-01-03T06:51:07.638Z,96.00
2019-01-03T06:52:07.627Z,104.00
2019-01-03T06:53:07.622Z,112.00
2019-01-03T06:54:07.625Z,120.00
2019-01-03T06:55:07.599Z,132.00
2019-01-03T06:56:07.761Z,140.00
2019-01-03T06:57:07.579Z,152.00
2019-01-03T06:58:07.569Z,164.00
2019-01-03T06:59:07.558Z,176.00
2019-01-03T07:00:07.575Z,184.00
2019-01-03T07:01:07.541Z,196.00
2019-01-03T07:02:07.568Z,212.00
2019-01-03T07:03:07.519Z,228.00
2019-01-03T07:04:07.510Z,240.00
2019-01-03T07:05:19.110Z,256.00
2019-01-03T07:06:14.473Z,272.00
2019-01-03T07:07:16.374Z,292.00
2019-01-03T07:08:14.456Z,308.00
2019-01-03T07:09:14.958Z,328.00
2019-01-03T07:10:07.452Z,344.00
2019-01-03T07:11:07.439Z,364.00
2019-01-03T07:12:07.434Z,384.00
2019-01-03T07:13:07.461Z,408.00
2019-01-03T07:14:07.419Z,428.00
2019-01-03T07:15:07.429Z,456.00
2019-01-03T07:16:07.392Z,476.00
2019-01-03T07:17:07.381Z,500.00
2019-01-03T07:18:07.412Z,528.00
2019-01-03T07:19:07.405Z,548.00
2019-01-03T07:20:07.355Z,576.00
2019-01-03T07:21:07.371Z,604.00
2019-01-03T07:22:07.335Z,628.00
2019-01-03T07:23:07.323Z,660.00
2019-01-03T07:24:07.318Z,688.00
2019-01-03T07:25:07.341Z,720.00
2019-01-03T07:26:07.331Z,748.00
2019-01-03T07:27:07.293Z,764.00
2019-01-03T07:28:07.277Z,800.00
2019-01-03T07:29:07.267Z,832.00
2019-01-03T07:30:07.253Z,864.00
2019-01-03T07:31:07.265Z,900.00
2019-01-03T07:32:07.266Z,936.00
2019-01-03T07:33:07.229Z,972.00
2019-01-03T07:34:07.215Z,1008.00
2019-01-03T07:35:07.210Z,1044.00
2019-01-03T07:36:07.196Z,1084.00
2019-01-03T07:37:07.223Z,1124.00
2019-01-03T07:38:07.207Z,1160.00
2019-01-03T07:39:07.169Z,1200.00
2019-01-03T07:40:17.086Z,1240.00
2019-01-03T07:41:14.142Z,1280.00
2019-01-03T07:42:07.133Z,1328.00
2019-01-03T07:43:07.166Z,1368.00
2019-01-03T07:44:07.117Z,1412.00
2019-01-03T07:45:07.124Z,1456.00
2019-01-03T07:46:07.116Z,1500.00
2019-01-03T07:47:07.087Z,1524.00
2019-01-03T07:48:07.078Z,1596.00
2019-01-03T07:49:07.113Z,1644.00
2019-01-03T07:50:07.057Z,1692.00
2019-01-03T07:51:07.049Z,1740.00
2019-01-03T07:52:07.035Z,1784.00
2019-01-03T07:53:07.029Z,1824.00
2019-01-03T07:54:07.018Z,1868.00
2019-01-03T07:55:07.049Z,1908.00
2019-01-03T07:56:07.073Z,1952.00
2019-01-03T07:57:06.986Z,1992.00
2019-01-03T07:58:06.977Z,2036.00
2019-01-03T07:59:06.968Z,2076.00
2019-01-03T08:00:06.960Z,2116.00
2019-01-03T08:01:06.966Z,2156.00
2019-01-03T08:02:06.957Z,2200.00
2019-01-03T08:03:06.937Z,2236.00
2019-01-03T08:04:06.920Z,2280.00
2019-01-03T08:05:06.909Z,2316.00
2019-01-03T08:06:06.901Z,2356.00
2019-01-03T08:07:06.945Z,2392.00
2019-01-03T08:08:06.911Z,2436.00
2019-01-03T08:09:06.869Z,2472.00
2019-01-03T08:10:06.860Z,2512.00
2019-01-03T08:11:06.848Z,2556.00
2019-01-03T08:12:17.476Z,2596.00
2019-01-03T08:13:06.829Z,2632.00
2019-01-03T08:14:06.830Z,2672.00
2019-01-03T08:15:06.811Z,2704.00
2019-01-03T08:16:06.799Z,2744.00
2019-01-03T08:17:06.861Z,2784.00
2019-01-03T08:18:06.819Z,2824.00
2019-01-03T08:19:08.098Z,2860.00
2019-01-03T08:20:06.792Z,2896.00
2019-01-03T08:21:06.750Z,2932.00
2019-01-03T08:22:06.739Z,2968.00
2019-01-03T08:23:06.729Z,3000.00
2019-01-03T08:24:06.739Z,3040.00
2019-01-03T08:25:06.747Z,3076.00
2019-01-03T08:26:06.701Z,3112.00
2019-01-03T08:27:06.689Z,3148.00
2019-01-03T08:28:06.680Z,3184.00
2019-01-03T08:29:06.669Z,3216.00
2019-01-03T08:30:06.831Z,3252.00
2019-01-03T08:31:06.676Z,3284.00
2019-01-03T08:32:06.641Z,3316.00
2019-01-03T08:33:06.632Z,3348.00
2019-01-03T08:34:06.626Z,3384.00
2019-01-03T08:35:06.613Z,3420.00
2019-01-03T08:36:06.806Z,3452.00
2019-01-03T08:37:06.612Z,3484.00
2019-01-03T08:38:06.582Z,3524.00
2019-01-03T08:39:06.573Z,3556.00
2019-01-03T08:40:06.560Z,3584.00
2019-01-03T08:41:06.550Z,3616.00
2019-01-03T08:42:06.564Z,3652.00
2019-01-03T08:43:16.923Z,3680.00
2019-01-03T08:44:13.516Z,3712.00
2019-01-03T08:45:06.512Z,3740.00
2019-01-03T08:46:06.500Z,3772.00
2019-01-03T08:47:06.497Z,3804.00
2019-01-03T08:48:06.529Z,3836.00
2019-01-03T08:49:06.472Z,3864.00
2019-01-03T08:50:06.462Z,3896.00
2019-01-03T08:51:06.480Z,3932.00
2019-01-03T08:52:06.442Z,3960.00
2019-01-03T08:53:06.435Z,3992.00
2019-01-03T08:54:06.469Z,4024.00
2019-01-03T08:55:06.438Z,4052.00
2019-01-03T08:56:06.401Z,4084.00
2019-01-03T08:57:06.395Z,4120.00
2019-01-03T08:58:06.385Z,4148.00
2019-01-03T08:59:06.374Z,4180.00
2019-01-03T09:00:06.539Z,4212.00
2019-01-03T09:01:06.353Z,4240.00
2019-01-03T09:02:06.344Z,4276.00
2019-01-03T09:03:06.333Z,4304.00
2019-01-03T09:04:06.332Z,4332.00
2019-01-03T09:05:06.314Z,4364.00
2019-01-03T09:06:06.411Z,4396.00
2019-01-03T09:07:06.328Z,4428.00
2019-01-03T09:08:06.283Z,4460.00
2019-01-03T09:09:06.273Z,4496.00
2019-01-03T09:10:06.268Z,4528.00
2019-01-03T09:11:06.250Z,4564.00
2019-01-03T09:12:06.285Z,4592.00
2019-01-03T09:13:06.258Z,4628.00
2019-01-03T09:14:06.223Z,4660.00
2019-01-03T09:15:16.513Z,4692.00
2019-01-03T09:16:13.489Z,4724.00
2019-01-03T09:17:06.191Z,4752.00
2019-01-03T09:18:09.578Z,4780.00
2019-01-03T09:19:06.175Z,4812.00
2019-01-03T09:20:06.167Z,4844.00
2019-01-03T09:21:06.153Z,4884.00
2019-01-03T09:22:06.154Z,4916.00
2019-01-03T09:23:06.141Z,4952.00
2019-01-03T09:24:06.366Z,4984.00
2019-01-03T09:25:06.114Z,5020.00
2019-01-03T09:26:06.104Z,5048.00
2019-01-03T09:27:12.253Z,5080.00
2019-01-03T09:28:07.082Z,5116.00
2019-01-03T09:29:06.092Z,5152.00
2019-01-03T09:30:06.101Z,5192.00
2019-01-03T09:31:06.054Z,5228.00
2019-01-03T09:32:06.069Z,5260.00
2019-01-03T09:33:06.032Z,5300.00
2019-01-03T09:34:06.021Z,5336.00
2019-01-03T09:35:06.011Z,5380.00
2019-01-03T09:36:06.039Z,5404.00
2019-01-03T09:37:06.012Z,5448.00
2019-01-03T09:38:05.979Z,5480.00
2019-01-03T09:39:05.972Z,5512.00
2019-01-03T09:40:05.963Z,5540.00
2019-01-03T09:41:05.966Z,5572.00
2019-01-03T09:42:05.980Z,5604.00
2019-01-03T09:43:05.950Z,5656.00
2019-01-03T09:44:05.922Z,5704.00
2019-01-03T09:45:05.910Z,5740.00
2019-01-03T09:46:05.904Z,5772.00
2019-01-03T09:47:17.574Z,5792.00
2019-01-03T09:48:05.879Z,5840.00
2019-01-03T09:49:05.870Z,5848.00
2019-01-03T09:50:05.861Z,5928.00
2019-01-03T09:51:05.852Z,5984.00
2019-01-03T09:52:05.839Z,6032.00
2019-01-03T09:53:06.120Z,6088.00
2019-01-03T09:54:05.818Z,5968.00
2019-01-03T09:55:05.811Z,6148.00
2019-01-03T09:56:05.799Z,6220.00
2019-01-03T09:57:05.816Z,6284.00
2019-01-03T09:58:05.779Z,6912.00
2019-01-03T09:59:05.810Z,14624.00
2019-01-03T10:00:05.759Z,32736.00
2019-01-03T10:01:05.750Z,43296.00
2019-01-03T10:02:05.779Z,43552.00
2019-01-03T10:03:05.727Z,40320.00
2019-01-03T10:04:05.719Z,40096.00
2019-01-03T10:05:05.749Z,40640.00
2019-01-03T10:06:05.696Z,39232.00
2019-01-03T10:07:05.687Z,40288.00
2019-01-03T10:08:05.713Z,39424.00
2019-01-03T10:09:05.663Z,39936.00
2019-01-03T10:10:05.653Z,38976.00
2019-01-03T10:11:05.822Z,42048.00
2019-01-03T10:12:05.633Z,42656.00
2019-01-03T10:13:05.626Z,43712.00
2019-01-03T10:14:05.643Z,45056.00
2019-01-03T10:15:05.603Z,44544.00
2019-01-03T10:16:05.621Z,45024.00
2019-01-03T10:17:05.621Z,44672.00
2019-01-03T10:18:15.534Z,45280.00
2019-01-03T10:19:05.556Z,44480.00
2019-01-03T10:20:05.549Z,43232.00
2019-01-03T10:21:05.540Z,43840.00
2019-01-03T10:22:05.525Z,43584.00
2019-01-03T10:23:05.558Z,44512.00
2019-01-03T10:24:05.504Z,45184.00
2019-01-03T10:25:05.498Z,45088.00
2019-01-03T10:26:05.494Z,47008.00
2019-01-03T10:27:05.471Z,46112.00
2019-01-03T10:28:05.463Z,47104.00
2019-01-03T10:29:05.501Z,47104.00
2019-01-03T10:30:05.441Z,47360.00
2019-01-03T10:31:05.433Z,47584.00
2019-01-03T10:32:05.418Z,47424.00
2019-01-03T10:33:05.410Z,47424.00
2019-01-03T10:34:05.401Z,46400.00
2019-01-03T10:35:05.433Z,44928.00
2019-01-03T10:36:05.375Z,43328.00
2019-01-03T10:37:05.368Z,41952.00
2019-01-03T10:38:05.358Z,40576.00
2019-01-03T10:39:05.346Z,39680.00
2019-01-03T10:40:05.335Z,39392.00
2019-01-03T10:41:05.359Z,38944.00
2019-01-03T10:42:05.320Z,39936.00
2019-01-03T10:43:05.306Z,40032.00
2019-01-03T10:44:05.293Z,39648.00
2019-01-03T10:45:05.383Z,40256.00
2019-01-03T10:46:05.277Z,42240.00
2019-01-03T10:47:05.306Z,42624.00
2019-01-03T10:48:05.248Z,44352.00
2019-01-03T10:49:15.800Z,46048.00
2019-01-03T10:50:05.227Z,43776.00
2019-01-03T10:51:05.214Z,42208.00
2019-01-03T10:52:05.204Z,40160.00
2019-01-03T10:53:05.236Z,37952.00
2019-01-03T10:54:05.185Z,37184.00
2019-01-03T10:55:05.177Z,37120.00
2019-01-03T10:56:05.169Z,38368.00
2019-01-03T10:57:05.163Z,38720.00
2019-01-03T10:58:05.141Z,39168.00
2019-01-03T10:59:05.174Z,39808.00
2019-01-03T11:00:05.126Z,39680.00
2019-01-03T11:01:05.111Z,39520.00
2019-01-03T11:02:05.099Z,38496.00
2019-01-03T11:03:05.088Z,37728.00
2019-01-03T11:04:05.080Z,36448.00
2019-01-03T11:05:05.084Z,34944.00
2019-01-03T11:06:05.061Z,34912.00
2019-01-03T11:07:05.049Z,24160.00
2019-01-03T11:08:05.034Z,10852.00
2019-01-03T11:09:05.023Z,23968.00
2019-01-03T11:10:05.018Z,37344.00
2019-01-03T11:11:05.043Z,35808.00
2019-01-03T11:12:04.991Z,33408.00
2019-01-03T11:13:04.982Z,33152.00
2019-01-03T11:14:04.970Z,31072.00
2019-01-03T11:15:04.966Z,30848.00
2019-01-03T11:16:04.947Z,34048.00
2019-01-03T11:17:04.978Z,34560.00
2019-01-03T11:18:04.925Z,25632.00
2019-01-03T11:19:04.916Z,26144.00
2019-01-03T11:20:15.849Z,35712.00
2019-01-03T11:21:04.899Z,33696.00
2019-01-03T11:22:04.882Z,33056.00
2019-01-03T11:23:04.915Z,31424.00
2019-01-03T11:24:04.859Z,31872.00
2019-01-03T11:25:04.850Z,30112.00
2019-01-03T11:26:04.844Z,29472.00
2019-01-03T11:27:11.812Z,30944.00
2019-01-03T11:28:04.818Z,31104.00
2019-01-03T11:29:04.846Z,29024.00
2019-01-03T11:30:04.797Z,28480.00
2019-01-03T11:31:04.784Z,25952.00
2019-01-03T11:32:12.059Z,23808.00
2019-01-03T11:33:12.053Z,24288.00
2019-01-03T11:34:04.751Z,27648.00
2019-01-03T11:35:04.786Z,25760.00
2019-01-03T11:36:04.728Z,19584.00
2019-01-03T11:37:04.718Z,12736.00
2019-01-03T11:38:04.708Z,12448.00
2019-01-03T11:39:11.992Z,9716.00
2019-01-03T11:40:04.687Z,6384.00
2019-01-03T11:41:12.878Z,7124.00
2019-01-03T11:42:04.667Z,7540.00
2019-01-03T11:43:12.252Z,11840.00
2019-01-03T11:44:12.243Z,8984.00
2019-01-03T11:45:04.636Z,5456.00
2019-01-03T11:46:04.625Z,4936.00
2019-01-03T11:47:04.773Z,5204.00
2019-01-03T11:48:11.600Z,5116.00
2019-01-03T11:49:04.592Z,5364.00
2019-01-03T11:50:04.583Z,4992.00
2019-01-03T11:51:04.574Z,4892.00
2019-01-03T11:52:04.573Z,5096.00
2019-01-03T11:53:04.590Z,6260.00
2019-01-03T11:54:04.542Z,12640.00
2019-01-03T11:55:04.562Z,19680.00
2019-01-03T11:56:04.518Z,17504.00
2019-01-03T11:57:04.509Z,16416.00
2019-01-03T11:58:04.498Z,13856.00
2019-01-03T11:59:04.530Z,9536.00
2019-01-03T12:00:04.499Z,8280.00
2019-01-03T12:01:04.464Z,6724.00
2019-01-03T12:02:04.453Z,7952.00
2019-01-03T12:03:04.443Z,7408.00
2019-01-03T12:04:05.079Z,5732.00
2019-01-03T12:05:04.464Z,4772.00
2019-01-03T12:06:04.432Z,3976.00
2019-01-03T12:07:04.400Z,4416.00
2019-01-03T12:08:04.393Z,4196.00
2019-01-03T12:09:04.382Z,5228.00
2019-01-03T12:10:04.374Z,5304.00
2019-01-03T12:11:04.383Z,6080.00
2019-01-03T12:12:04.374Z,5812.00
2019-01-03T12:13:04.340Z,5480.00
2019-01-03T12:14:04.331Z,4672.00
2019-01-03T12:15:04.320Z,4884.00
2019-01-03T12:16:04.311Z,4452.00
2019-01-03T12:17:04.343Z,5140.00
2019-01-03T12:18:04.312Z,6504.00
2019-01-03T12:19:14.744Z,6224.00
2019-01-03T12:20:04.268Z,4332.00
2019-01-03T12:21:04.261Z,3644.00
2019-01-03T12:22:04.254Z,3288.00
2019-01-03T12:23:04.276Z,3024.00
2019-01-03T12:24:04.255Z,2880.00
2019-01-03T12:25:04.216Z,2816.00
2019-01-03T12:26:04.210Z,2756.00
2019-01-03T12:27:04.198Z,2696.00
2019-01-03T12:28:04.793Z,2632.00